Chicago Executive Airport

Jump to: basic info | weather | frequencies | runways | comments

Related pages: nearby airports | nearby navaids | notams | map

Basic information (top)

Codes: KPWK PWK
Location: lon 42.114222, lat -87.901494, elev 647 ft / 197 m msl
Status: medium_airport
Scheduled airline service: no
Links: Wikipedia Mobile

Weather (top)

Current conditions (rec'd 2014/09/02 22:52Z):

KPWK 022252Z 28008KT 10SM FEW055 27/13 A2990 RMK AO2 SLP121 T02670133

Airport forecast for Chicago O'Hare International Airport 8nm (15km) S (rec'd 2014/09/02 18:30Z):

TAF KORD 021728Z 0218/0324 27009KT P6SM SCT035 SCT250 
     FM030100 VRB03KT P6SM SKC 
     FM031500 18010KT P6SM SCT250

Frequencies (top)

Verify before use: may be inaccurate or out of date.

A/D: 120.55 MHz (CHICAGO APP/DEP)
ATIS: 124.2 MHz (ATIS)
CLD: 124.7 MHz (CLNC DEL)
CTAF: 119.9 MHz (CTAF)
GND: 121.7 MHz (GND)
TWR: 119.9 MHz (TWR)
UNIC: 122.95 MHz (UNICOM)

Runways (top)

06/24: 3,660 x 50 ft (1,116 x 15 m) — paved — lighted — threshold 06 displaced 354 ft (108 m) — threshold 24 displaced 1,251 ft (381 m)

12/30: 4,386 x 75 ft (1,337 x 23 m) — paved — lighted — threshold 12 displaced 289 ft (88 m) — threshold 30 displaced 433 ft (132 m)

16/34: 5,000 x 150 ft (1,524 x 46 m) — paved — lighted

Latest comments (top)

No comments yet for Chicago Executive Airport

More... (top)

See also NOTAMs and nearby airports and navaids, or visit the Chicago Executive Airport page at the main OurAirports website..